createdAt,value
2022-11-02T00:00:29.715Z,12.10
2022-11-02T00:02:56.394Z,12.19
2022-11-02T00:05:25.970Z,12.22
2022-11-02T00:07:53.272Z,12.24
2022-11-02T00:10:20.448Z,12.24
2022-11-02T00:12:47.436Z,12.26
2022-11-02T00:15:17.044Z,12.26
2022-11-02T00:17:45.159Z,12.26
2022-11-02T00:20:12.797Z,12.27
2022-11-02T00:22:39.667Z,12.26
2022-11-02T00:25:07.045Z,12.25
2022-11-02T00:27:34.543Z,12.24
2022-11-02T00:30:01.282Z,12.24
2022-11-02T00:32:30.549Z,12.21
2022-11-02T00:34:57.098Z,12.19
2022-11-02T00:37:23.803Z,12.14
2022-11-02T00:39:50.446Z,12.12
2022-11-02T00:42:17.037Z,12.12
2022-11-02T00:44:43.591Z,12.10
2022-11-02T00:47:11.939Z,12.09
2022-11-02T00:49:38.508Z,12.08
2022-11-02T00:52:06.157Z,12.05
2022-11-02T00:54:33.056Z,12.05
2022-11-02T00:59:31.228Z,12.00
2022-11-02T01:01:57.966Z,11.99
2022-11-02T01:04:24.565Z,12.00
2022-11-02T01:06:51.544Z,11.99
2022-11-02T01:09:18.618Z,12.01
2022-11-02T01:11:45.264Z,12.02
2022-11-02T01:14:14.461Z,12.04
2022-11-02T01:16:41.580Z,12.06
2022-11-02T01:19:08.237Z,12.08
2022-11-02T01:21:34.759Z,12.10
2022-11-02T01:24:02.104Z,12.10
2022-11-02T01:26:31.052Z,12.12
2022-11-02T01:28:57.628Z,12.16
2022-11-02T01:31:24.195Z,12.19
2022-11-02T01:33:51.004Z,12.22
2022-11-02T01:38:52.697Z,12.27
2022-11-02T01:41:19.317Z,12.30
2022-11-02T01:43:47.189Z,12.33
2022-11-02T01:46:20.046Z,12.38
2022-11-02T01:48:56.208Z,12.40
2022-11-02T01:51:34.510Z,12.42
2022-11-02T01:54:05.058Z,12.41
2022-11-02T01:56:32.928Z,12.42
2022-11-02T01:59:04.261Z,12.43
2022-11-02T02:01:31.848Z,12.43
2022-11-02T02:03:59.399Z,12.44
2022-11-02T02:06:26.554Z,12.44
2022-11-02T02:08:54.594Z,12.46
2022-11-02T02:11:25.252Z,12.45
2022-11-02T02:13:51.889Z,12.45
2022-11-02T02:16:38.379Z,12.44
2022-11-02T02:19:10.255Z,12.41
2022-11-02T02:21:55.679Z,12.41
2022-11-02T02:24:22.333Z,12.46
2022-11-02T02:26:53.090Z,12.47
2022-11-02T02:29:21.620Z,12.50
2022-11-02T02:31:53.598Z,12.51
2022-11-02T02:34:33.866Z,12.50
2022-11-02T02:37:03.995Z,12.51
2022-11-02T02:39:33.525Z,12.53
2022-11-02T02:42:00.102Z,12.53
2022-11-02T02:44:29.029Z,12.56
2022-11-02T02:46:56.390Z,12.57
2022-11-02T02:49:27.403Z,12.60
2022-11-02T02:51:56.614Z,12.64
2022-11-02T02:54:31.335Z,12.69
2022-11-02T02:57:00.979Z,12.70
2022-11-02T02:59:41.333Z,12.76
2022-11-02T03:02:13.978Z,12.80
2022-11-02T03:04:41.020Z,12.83
2022-11-02T03:07:10.076Z,12.88
2022-11-02T03:09:42.696Z,12.90
2022-11-02T03:12:28.016Z,12.90
2022-11-02T03:15:13.406Z,12.88
2022-11-02T03:18:07.856Z,12.88
2022-11-02T03:20:42.970Z,12.91
2022-11-02T03:23:16.388Z,12.93
2022-11-02T03:26:02.024Z,12.95
2022-11-02T03:28:41.788Z,12.96
2022-11-02T03:31:24.387Z,12.94
2022-11-02T03:34:09.289Z,12.94
2022-11-02T03:36:48.223Z,12.97
2022-11-02T03:39:16.760Z,12.98
2022-11-02T03:41:44.582Z,12.99
2022-11-02T03:44:20.241Z,13.05
2022-11-02T03:46:49.609Z,13.03
2022-11-02T03:49:18.188Z,13.07
2022-11-02T03:51:46.352Z,13.09
2022-11-02T03:54:29.899Z,13.06
2022-11-02T03:56:59.370Z,12.99
2022-11-02T03:59:30.300Z,12.93
2022-11-02T04:01:57.034Z,12.87
2022-11-02T04:04:23.690Z,12.87
2022-11-02T04:06:50.905Z,12.84
2022-11-02T04:09:18.654Z,12.82
2022-11-02T04:12:04.500Z,12.81
2022-11-02T04:14:38.091Z,12.83
2022-11-02T04:17:28.173Z,12.85
2022-11-02T04:19:56.649Z,12.89
2022-11-02T04:22:43.018Z,12.88
2022-11-02T04:25:18.306Z,12.90
2022-11-02T04:28:11.373Z,12.92
2022-11-02T04:31:00.133Z,12.99
2022-11-02T04:33:33.528Z,13.10
2022-11-02T04:36:07.567Z,13.22
2022-11-02T04:38:41.422Z,13.31
2022-11-02T04:41:36.782Z,13.37
2022-11-02T04:44:06.850Z,13.47
2022-11-02T04:46:36.420Z,13.51
2022-11-02T04:49:04.575Z,13.55
2022-11-02T04:51:33.178Z,13.58
2022-11-02T04:54:01.178Z,13.59
2022-11-02T04:56:29.488Z,13.57
2022-11-02T04:58:58.053Z,13.53
2022-11-02T05:01:25.919Z,13.48
2022-11-02T05:03:53.312Z,13.44
2022-11-02T05:06:20.716Z,13.39
2022-11-02T05:08:48.436Z,13.36
2022-11-02T05:11:15.082Z,13.32
2022-11-02T05:13:42.695Z,13.25
2022-11-02T05:16:11.493Z,13.21
2022-11-02T05:18:38.728Z,13.21
2022-11-02T05:21:05.469Z,13.20
2022-11-02T05:23:32.103Z,13.20
2022-11-02T05:26:01.570Z,13.16
2022-11-02T05:28:30.444Z,13.12
2022-11-02T05:30:59.008Z,13.10
2022-11-02T05:33:30.406Z,13.10
2022-11-02T05:35:59.844Z,13.11
2022-11-02T05:38:28.174Z,13.14
2022-11-02T05:40:55.803Z,13.20
2022-11-02T05:43:23.709Z,13.25
2022-11-02T05:45:57.472Z,13.32
2022-11-02T05:48:25.037Z,13.43
2022-11-02T05:50:55.510Z,13.53
2022-11-02T05:53:22.122Z,13.49
2022-11-02T05:55:48.666Z,13.61
2022-11-02T05:58:15.214Z,13.65
2022-11-02T06:00:41.801Z,13.70
2022-11-02T06:03:08.354Z,13.77
2022-11-02T06:05:35.288Z,13.83
2022-11-02T06:08:01.988Z,13.88
2022-11-02T06:10:29.981Z,13.96
2022-11-02T06:12:57.366Z,14.01
2022-11-02T06:15:24.045Z,14.08
2022-11-02T06:17:51.762Z,14.11
2022-11-02T06:20:18.550Z,14.14
2022-11-02T06:22:45.175Z,14.17
2022-11-02T06:27:34.759Z,14.16
2022-11-02T06:30:02.137Z,14.19
2022-11-02T06:32:30.352Z,14.21
2022-11-02T06:34:56.873Z,14.23
2022-11-02T06:37:23.522Z,14.29
2022-11-02T06:39:50.199Z,14.32
2022-11-02T06:42:16.818Z,14.35
2022-11-02T06:44:43.370Z,14.47
2022-11-02T06:47:10.012Z,14.62
2022-11-02T06:49:36.613Z,14.74
2022-11-02T06:52:03.276Z,14.84
2022-11-02T06:54:29.881Z,14.86
2022-11-02T06:56:56.418Z,14.93
2022-11-02T06:59:22.967Z,15.02
2022-11-02T07:01:54.450Z,15.10
2022-11-02T07:04:22.713Z,15.17
2022-11-02T07:06:50.001Z,15.31
2022-11-02T07:09:16.570Z,15.52
2022-11-02T07:11:43.155Z,15.80
2022-11-02T07:14:09.735Z,16.05
2022-11-02T07:16:36.323Z,16.29
2022-11-02T07:19:03.249Z,16.48
2022-11-02T07:21:29.829Z,16.66
2022-11-02T07:23:57.986Z,16.81
2022-11-02T07:26:24.545Z,16.94
2022-11-02T07:28:55.212Z,17.07
2022-11-02T07:31:25.345Z,17.20
2022-11-02T07:33:51.878Z,17.34
2022-11-02T07:36:18.456Z,17.51
2022-11-02T07:38:45.078Z,17.65
2022-11-02T07:41:11.588Z,17.78
2022-11-02T07:43:41.401Z,17.92
2022-11-02T07:46:20.133Z,18.07
2022-11-02T07:48:46.984Z,18.18
2022-11-02T07:51:13.872Z,18.23
2022-11-02T07:53:40.489Z,18.22
2022-11-02T07:56:07.769Z,18.22
2022-11-02T07:58:34.456Z,18.31
2022-11-02T08:01:01.592Z,18.31
2022-11-02T08:03:28.975Z,18.40
2022-11-02T08:05:55.712Z,18.54
2022-11-02T08:08:23.209Z,18.58
2022-11-02T08:10:50.763Z,18.69
2022-11-02T08:13:18.406Z,18.88
2022-11-02T08:15:45.023Z,18.74
2022-11-02T08:18:15.717Z,18.74
2022-11-02T08:20:42.432Z,18.87
2022-11-02T08:23:09.778Z,18.97
2022-11-02T08:25:36.719Z,19.09
2022-11-02T08:28:05.186Z,19.03
2022-11-02T08:30:32.604Z,19.12
2022-11-02T08:33:06.944Z,19.04
2022-11-02T08:35:34.792Z,19.01
2022-11-02T08:38:01.974Z,19.02
2022-11-02T08:40:28.906Z,18.88
2022-11-02T08:42:59.279Z,18.51
2022-11-02T08:45:26.840Z,18.27
2022-11-02T08:47:53.575Z,18.08
2022-11-02T08:50:20.225Z,17.94
2022-11-02T08:52:46.792Z,17.79
2022-11-02T08:55:13.523Z,17.66
2022-11-02T08:57:46.270Z,17.57
2022-11-02T09:00:13.378Z,17.50
2022-11-02T09:02:40.442Z,17.45
2022-11-02T09:05:07.404Z,17.41
2022-11-02T09:07:34.163Z,17.38
2022-11-02T09:10:00.775Z,17.34
2022-11-02T09:12:27.318Z,17.35
2022-11-02T09:14:54.061Z,17.38
2022-11-02T09:17:20.714Z,17.39
2022-11-02T09:19:47.305Z,17.42
2022-11-02T09:22:13.924Z,17.45
2022-11-02T09:24:40.521Z,17.48
2022-11-02T09:27:07.118Z,17.53
2022-11-02T09:29:34.050Z,17.63
2022-11-02T09:32:02.885Z,17.71
2022-11-02T09:34:29.444Z,17.77
2022-11-02T09:36:55.982Z,17.85
2022-11-02T09:39:24.878Z,17.93
2022-11-02T09:42:01.317Z,17.98
2022-11-02T09:44:31.542Z,18.02
2022-11-02T09:47:49.633Z,18.06
2022-11-02T09:49:45.829Z,18.15
2022-11-02T09:52:23.858Z,18.24
2022-11-02T09:54:52.891Z,18.29
2022-11-02T09:57:34.605Z,18.38
2022-11-02T10:00:01.567Z,18.41
2022-11-02T10:02:36.550Z,18.45
2022-11-02T10:05:15.402Z,18.53
2022-11-02T10:08:00.929Z,18.49
2022-11-02T10:10:36.856Z,18.46
2022-11-02T10:13:26.813Z,18.52
2022-11-02T10:15:53.384Z,18.58
2022-11-02T10:18:23.409Z,18.63
2022-11-02T10:20:51.577Z,18.66
2022-11-02T10:23:21.361Z,18.68
2022-11-02T10:25:48.092Z,18.72
2022-11-02T10:28:17.505Z,18.68
2022-11-02T10:30:44.208Z,18.74
2022-11-02T10:33:13.659Z,18.77
2022-11-02T10:36:12.065Z,18.77
2022-11-02T10:38:35.670Z,18.79
2022-11-02T10:41:20.568Z,18.85
2022-11-02T10:44:05.863Z,18.84
2022-11-02T10:46:36.053Z,18.76
2022-11-02T10:49:09.338Z,18.79
2022-11-02T10:51:35.885Z,18.71
2022-11-02T10:54:02.708Z,18.68
2022-11-02T10:56:30.731Z,18.68
2022-11-02T10:59:03.298Z,18.70
2022-11-02T11:01:30.996Z,18.71
2022-11-02T11:04:02.370Z,18.75
2022-11-02T11:06:30.909Z,18.77
2022-11-02T11:09:01.994Z,18.65
2022-11-02T11:11:30.975Z,18.58
2022-11-02T11:20:04.304Z,18.51
2022-11-02T11:22:38.216Z,18.51
2022-11-02T11:25:28.022Z,18.44
2022-11-02T11:27:56.281Z,18.38
2022-11-02T11:30:46.272Z,18.38
2022-11-02T11:33:19.421Z,18.39
2022-11-02T11:35:48.845Z,18.35
2022-11-02T11:38:16.489Z,18.33
2022-11-02T11:40:48.037Z,18.36
2022-11-02T11:43:16.576Z,18.44
2022-11-02T11:46:04.849Z,18.41
2022-11-02T11:48:38.270Z,18.55
2022-11-02T11:51:07.057Z,18.44
2022-11-02T11:53:35.568Z,18.39
2022-11-02T11:56:02.220Z,18.42
2022-11-02T11:58:32.481Z,18.42
2022-11-02T12:01:17.432Z,18.42
2022-11-02T12:03:57.193Z,18.43
2022-11-02T12:06:29.295Z,18.40
2022-11-02T12:09:24.816Z,18.39
2022-11-02T12:12:09.561Z,18.40
2022-11-02T12:14:47.950Z,18.40
2022-11-02T12:17:23.343Z,18.42
2022-11-02T12:19:49.997Z,18.47
2022-11-02T12:22:35.232Z,18.60
2022-11-02T12:25:20.428Z,18.66
2022-11-02T12:27:58.840Z,18.73
2022-11-02T12:30:32.040Z,18.78
2022-11-02T12:33:26.539Z,18.83
2022-11-02T12:36:06.215Z,18.84
2022-11-02T12:38:51.556Z,18.84
2022-11-02T12:41:21.144Z,18.94
2022-11-02T12:43:54.199Z,18.93
2022-11-02T12:46:20.808Z,18.90
2022-11-02T12:48:50.435Z,18.86
2022-11-02T12:51:24.402Z,18.97
2022-11-02T12:53:57.155Z,19.14
2022-11-02T12:56:29.569Z,19.02
2022-11-02T12:58:56.402Z,19.08
2022-11-02T13:01:23.113Z,19.09
2022-11-02T13:04:02.163Z,19.19
2022-11-02T13:06:46.545Z,19.20
2022-11-02T13:09:28.943Z,19.11
2022-11-02T13:12:05.489Z,19.15
2022-11-02T13:15:01.467Z,19.13
2022-11-02T13:17:45.611Z,19.07
2022-11-02T13:20:20.807Z,19.04
2022-11-02T13:22:54.370Z,19.03
2022-11-02T13:25:22.266Z,19.01
2022-11-02T13:27:52.154Z,18.95
2022-11-02T13:30:19.123Z,18.89
2022-11-02T13:32:48.948Z,18.86
2022-11-02T13:35:20.186Z,18.81
2022-11-02T13:37:49.844Z,18.79
2022-11-02T13:40:28.548Z,18.73
2022-11-02T13:43:01.033Z,18.71
2022-11-02T13:45:44.445Z,18.66
2022-11-02T13:48:19.679Z,18.65
2022-11-02T13:50:53.879Z,18.63
2022-11-02T13:53:40.035Z,18.63
2022-11-02T13:56:11.502Z,18.57
2022-11-02T13:58:48.266Z,18.53
2022-11-02T14:01:17.568Z,18.52
2022-11-02T14:04:13.579Z,18.50
2022-11-02T14:07:06.162Z,18.46
2022-11-02T14:09:42.889Z,18.44
2022-11-02T14:12:12.139Z,18.38
2022-11-02T14:14:38.806Z,18.31
2022-11-02T14:17:18.356Z,18.29
2022-11-02T14:19:47.549Z,18.24
2022-11-02T14:22:17.806Z,18.21
2022-11-02T14:24:48.325Z,18.13
2022-11-02T14:27:16.684Z,18.07
2022-11-02T14:29:46.364Z,18.02
2022-11-02T14:32:19.967Z,17.98
2022-11-02T14:35:05.013Z,17.93
2022-11-02T14:37:50.043Z,17.90
2022-11-02T14:40:19.212Z,17.84
2022-11-02T14:43:05.746Z,17.81
2022-11-02T14:45:41.537Z,17.78
2022-11-02T14:48:13.470Z,17.69
2022-11-02T14:50:40.237Z,17.71
2022-11-02T14:53:09.097Z,17.70
2022-11-02T14:55:36.750Z,17.66
2022-11-02T14:58:10.956Z,17.64
2022-11-02T15:00:38.070Z,17.57
2022-11-02T15:03:07.381Z,17.52
2022-11-02T15:05:35.560Z,17.46
2022-11-02T15:08:07.156Z,17.42
2022-11-02T15:10:51.847Z,17.42
2022-11-02T15:13:18.434Z,17.38
2022-11-02T15:15:45.752Z,17.32
2022-11-02T15:18:27.586Z,17.29
2022-11-02T15:21:12.395Z,17.23
2022-11-02T15:23:52.917Z,17.21
2022-11-02T15:26:31.533Z,17.12
2022-11-02T15:29:00.296Z,17.06
2022-11-02T15:31:27.523Z,17.00
2022-11-02T15:33:56.523Z,16.99
2022-11-02T15:36:32.362Z,16.98
2022-11-02T15:39:01.157Z,16.96
2022-11-02T15:41:36.537Z,16.91
2022-11-02T15:44:03.097Z,16.87
2022-11-02T15:46:41.718Z,16.78
2022-11-02T15:49:19.916Z,16.70
2022-11-02T15:51:49.153Z,16.61
2022-11-02T15:54:18.510Z,16.56
2022-11-02T15:56:45.044Z,16.52
2022-11-02T15:59:14.597Z,16.46
2022-11-02T16:01:42.780Z,16.41
2022-11-02T16:06:42.994Z,16.33
2022-11-02T16:09:24.628Z,16.29
2022-11-02T16:12:10.007Z,16.23
2022-11-02T16:14:36.609Z,16.20
2022-11-02T16:17:03.219Z,16.16
2022-11-02T16:19:29.740Z,16.11
2022-11-02T16:22:01.078Z,16.08
2022-11-02T16:24:29.180Z,16.07
2022-11-02T16:26:55.862Z,16.02
2022-11-02T16:29:26.780Z,15.99
2022-11-02T16:31:53.479Z,15.94
2022-11-02T16:34:21.749Z,15.90
2022-11-02T16:36:48.575Z,15.83
2022-11-02T16:39:30.386Z,15.75
2022-11-02T16:41:58.757Z,15.69
2022-11-02T16:44:34.993Z,15.64
2022-11-02T16:47:01.698Z,15.58
2022-11-02T16:49:29.042Z,15.50
2022-11-02T16:51:55.866Z,15.45
2022-11-02T16:54:25.468Z,15.40
2022-11-02T16:56:52.789Z,15.35
2022-11-02T16:59:21.393Z,15.31
2022-11-02T17:01:48.247Z,15.26
2022-11-02T17:04:16.438Z,15.21
2022-11-02T17:06:43.332Z,15.17
2022-11-02T17:09:28.868Z,15.11
2022-11-02T17:11:57.676Z,15.04
2022-11-02T17:14:24.778Z,15.00
2022-11-02T17:16:58.860Z,14.97
2022-11-02T17:19:40.673Z,14.87
2022-11-02T17:22:16.828Z,14.87
2022-11-02T17:24:43.428Z,14.82
2022-11-02T17:27:24.937Z,14.76
2022-11-02T17:29:52.410Z,14.71
2022-11-02T17:32:20.007Z,14.66
2022-11-02T17:34:53.272Z,14.62
2022-11-02T17:37:27.662Z,14.55
2022-11-02T17:39:55.046Z,14.53
2022-11-02T17:42:40.005Z,14.50
2022-11-02T17:45:34.001Z,14.44
2022-11-02T17:48:26.489Z,14.38
2022-11-02T17:50:54.720Z,14.33
2022-11-02T17:53:22.039Z,14.29
2022-11-02T17:55:48.676Z,14.25
2022-11-02T17:58:15.595Z,14.20
2022-11-02T18:00:42.395Z,14.15
2022-11-02T18:03:19.390Z,14.12
2022-11-02T18:05:49.559Z,14.09
2022-11-02T18:08:18.590Z,14.06
2022-11-02T18:10:46.097Z,14.06
2022-11-02T18:13:13.570Z,14.04
2022-11-02T18:15:40.317Z,14.04
2022-11-02T18:18:07.560Z,14.05
2022-11-02T18:20:41.095Z,14.07
2022-11-02T18:23:13.288Z,14.06
2022-11-02T18:25:39.938Z,14.03
2022-11-02T18:28:06.782Z,14.03
2022-11-02T18:30:33.911Z,14.02
2022-11-02T18:33:00.897Z,14.01
2022-11-02T18:35:27.499Z,13.95
2022-11-02T18:37:54.051Z,13.99
2022-11-02T18:40:20.753Z,13.97
2022-11-02T18:42:47.505Z,13.98
2022-11-02T18:45:14.877Z,13.94
2022-11-02T18:47:42.098Z,13.93
2022-11-02T18:50:10.369Z,13.92
2022-11-02T18:52:36.966Z,13.91
2022-11-02T18:55:05.237Z,13.93
2022-11-02T18:57:32.424Z,13.92
2022-11-02T18:59:59.711Z,13.90
2022-11-02T19:02:26.417Z,13.91
2022-11-02T19:04:53.103Z,13.90
2022-11-02T19:07:39.631Z,13.90
2022-11-02T19:10:06.309Z,13.88
2022-11-02T19:12:33.152Z,13.85
2022-11-02T19:14:59.694Z,13.84
2022-11-02T19:17:26.575Z,13.77
2022-11-02T19:19:53.521Z,13.74
2022-11-02T19:22:24.515Z,13.71
2022-11-02T19:24:51.533Z,13.71
2022-11-02T19:27:19.526Z,13.71
2022-11-02T19:29:46.236Z,13.68
2022-11-02T19:32:12.917Z,13.69
2022-11-02T19:34:39.717Z,13.69
2022-11-02T19:37:07.253Z,13.69
2022-11-02T19:39:33.826Z,13.76
2022-11-02T19:42:00.546Z,13.80
2022-11-02T19:44:27.151Z,13.81
2022-11-02T19:46:53.748Z,13.85
2022-11-02T19:49:20.388Z,13.88
2022-11-02T19:51:47.119Z,13.90
2022-11-02T19:54:13.748Z,13.90
2022-11-02T19:56:40.706Z,13.91
2022-11-02T19:59:08.486Z,13.90
2022-11-02T20:01:36.640Z,13.87
2022-11-02T20:04:03.708Z,13.85
2022-11-02T20:06:37.998Z,13.81
2022-11-02T20:09:05.476Z,13.80
2022-11-02T20:11:32.226Z,13.79
2022-11-02T20:14:00.083Z,13.76
2022-11-02T20:16:26.809Z,13.71
2022-11-02T20:18:54.154Z,13.68
2022-11-02T20:21:25.665Z,13.62
2022-11-02T20:23:55.471Z,13.57
2022-11-02T20:26:23.708Z,13.51
2022-11-02T20:28:50.744Z,13.48
2022-11-02T20:31:19.204Z,13.45
2022-11-02T20:33:46.772Z,13.43
2022-11-02T20:36:13.759Z,13.42
2022-11-02T20:38:40.625Z,13.37
2022-11-02T20:41:08.568Z,13.35
2022-11-02T20:43:35.636Z,13.35
2022-11-02T20:46:31.410Z,13.35
2022-11-02T20:48:53.463Z,13.37
2022-11-02T20:51:20.852Z,13.35
2022-11-02T20:53:49.057Z,13.33
2022-11-02T20:56:16.375Z,13.32
2022-11-02T20:58:42.985Z,13.30
2022-11-02T21:01:10.552Z,13.32
2022-11-02T21:03:37.286Z,13.34
2022-11-02T21:06:04.441Z,13.36
2022-11-02T21:08:31.055Z,13.32
2022-11-02T21:10:58.637Z,13.40
2022-11-02T21:13:44.157Z,13.40
2022-11-02T21:16:11.075Z,13.39
2022-11-02T21:18:38.113Z,13.37
2022-11-02T21:21:12.291Z,13.36
2022-11-02T21:23:38.892Z,13.36
2022-11-02T21:26:06.937Z,13.33
2022-11-02T21:28:34.309Z,13.27
2022-11-02T21:31:02.725Z,13.25
2022-11-02T21:33:29.793Z,13.20
2022-11-02T21:35:57.566Z,13.17
2022-11-02T21:38:24.958Z,13.13
2022-11-02T21:40:51.645Z,13.10
2022-11-02T21:43:18.272Z,13.06
2022-11-02T21:45:54.618Z,13.03
2022-11-02T21:48:24.761Z,13.01
2022-11-02T21:51:11.456Z,12.97
2022-11-02T21:53:39.270Z,12.76
2022-11-02T21:56:07.671Z,12.87
2022-11-02T21:58:34.548Z,12.85
2022-11-02T22:01:29.055Z,12.84
2022-11-02T22:03:55.645Z,12.80
2022-11-02T22:06:24.061Z,12.78
2022-11-02T22:08:53.762Z,12.74
2022-11-02T22:11:21.776Z,12.69
2022-11-02T22:13:49.198Z,12.63
2022-11-02T22:16:18.117Z,12.55
2022-11-02T22:18:45.442Z,12.51
2022-11-02T22:21:12.431Z,12.44
2022-11-02T22:23:39.458Z,12.44
2022-11-02T22:26:07.415Z,12.42
2022-11-02T22:28:36.066Z,12.42
2022-11-02T22:31:13.359Z,12.40
2022-11-02T22:33:42.165Z,12.38
2022-11-02T22:36:09.693Z,12.36
2022-11-02T22:38:48.422Z,12.37
2022-11-02T22:41:15.929Z,12.37
2022-11-02T22:43:43.055Z,12.35
2022-11-02T22:46:10.301Z,12.35
2022-11-02T22:48:36.939Z,12.31
2022-11-02T22:51:05.968Z,12.27
2022-11-02T22:53:32.828Z,12.26
2022-11-02T22:56:03.605Z,12.21
2022-11-02T22:58:31.274Z,12.19
2022-11-02T23:00:57.993Z,12.17
2022-11-02T23:03:24.538Z,12.15
2022-11-02T23:05:51.200Z,12.10
2022-11-02T23:08:18.480Z,12.06
2022-11-02T23:11:03.547Z,12.04
2022-11-02T23:13:30.446Z,11.98
2022-11-02T23:16:21.436Z,11.95
2022-11-02T23:19:07.205Z,11.89
2022-11-02T23:21:34.113Z,11.88
2022-11-02T23:24:19.562Z,11.86
2022-11-02T23:26:46.788Z,11.85
2022-11-02T23:29:32.361Z,11.84
2022-11-02T23:32:17.686Z,11.86
2022-11-02T23:35:04.220Z,11.86
2022-11-02T23:37:30.879Z,11.82
2022-11-02T23:39:58.038Z,11.78
2022-11-02T23:42:24.947Z,11.77
2022-11-02T23:44:52.112Z,11.74
2022-11-02T23:47:19.097Z,11.73
2022-11-02T23:49:45.802Z,11.71
2022-11-02T23:52:31.712Z,11.64
2022-11-02T23:55:16.979Z,11.62
2022-11-02T23:57:43.653Z,11.60
